Time;durP1;ratioP1;P1;durP2;ratioP2;P2;SDS_P1;SDS_P2;PMS_P1;PMS_P2;Temp;Humidity;BMP_temperature;BMP_pressure;BME280_temperature;BME280_humidity;BME280_pressure;Samples;Min_cycle;Max_cycle;Signal;HPM_P1;HPM_P2
2021/07/22 00:00:51;;;;;;;23.60;16.63;;;;;;;17.47;97.54;101797.09;4944054;28;20047;-85
2021/07/22 00:03:16;;;;;;;22.48;15.80;;;;;;;17.46;97.59;101798.09;4942855;28;20126;-88
2021/07/22 00:05:42;;;;;;;22.88;16.15;;;;;;;17.31;98.05;101801.63;4938527;29;20063;-85
2021/07/22 00:08:11;;;;;;;21.10;15.55;;;;;;;17.28;98.59;101798.44;4939108;28;20053;-84
2021/07/22 00:10:38;;;;;;;21.00;15.90;;;;;;;17.26;98.60;101795.94;4944250;28;20048;-84
2021/07/22 00:13:03;;;;;;;22.13;15.88;;;;;;;17.19;98.64;101797.69;4943383;28;20144;-88
2021/07/22 00:15:29;;;;;;;25.63;14.73;;;;;;;17.16;98.78;101795.34;4943142;28;20177;-91
2021/07/22 00:17:55;;;;;;;23.75;15.50;;;;;;;17.09;99.18;101797.94;4942890;28;20055;-84
2021/07/22 00:20:21;;;;;;;21.67;14.75;;;;;;;17.05;99.14;101790.34;4944640;28;20050;-85
2021/07/22 00:22:47;;;;;;;24.02;15.15;;;;;;;17.01;99.21;101787.16;4943573;28;20063;-85
2021/07/22 00:25:12;;;;;;;23.85;16.23;;;;;;;17.01;98.92;101786.31;4942000;28;20064;-84
2021/07/22 00:27:39;;;;;;;22.83;15.75;;;;;;;16.96;99.19;101784.16;4945849;28;20054;-91
2021/07/22 00:30:05;;;;;;;25.20;16.52;;;;;;;16.91;99.39;101790.09;4941190;28;20475;-85
2021/07/22 00:32:30;;;;;;;22.00;15.93;;;;;;;16.89;99.63;101784.03;4942939;28;20047;-85
2021/07/22 00:34:56;;;;;;;21.50;15.82;;;;;;;16.85;99.82;101784.56;4944744;28;20058;-87
2021/07/22 00:37:22;;;;;;;24.70;16.23;;;;;;;16.78;99.47;101781.75;4938885;28;20068;-85
2021/07/22 00:39:47;;;;;;;22.58;16.02;;;;;;;16.71;100.00;101780.75;4944108;28;20066;-88
2021/07/22 00:42:12;;;;;;;21.75;15.80;;;;;;;16.66;99.68;101783.19;4940829;28;20059;-86
2021/07/22 00:44:38;;;;;;;23.98;15.88;;;;;;;16.63;100.00;101778.09;4944297;28;20051;-85
2021/07/22 00:47:04;;;;;;;22.75;16.83;;;;;;;16.56;100.00;101782.56;4947270;28;20063;-86
2021/07/22 00:49:29;;;;;;;21.88;15.48;;;;;;;16.50;100.00;101780.56;4946917;28;20051;-87
2021/07/22 00:51:54;;;;;;;23.35;16.90;;;;;;;16.47;100.00;101779.91;4946848;28;20126;-89
2021/07/22 00:54:21;;;;;;;21.98;15.98;;;;;;;16.40;100.00;101768.09;4946140;28;20053;-84
2021/07/22 00:56:47;;;;;;;21.98;15.93;;;;;;;16.39;100.00;101776.41;4948219;28;20082;-86
2021/07/22 00:59:12;;;;;;;23.98;16.58;;;;;;;16.34;100.00;101771.53;4947421;28;20461;-84
2021/07/22 01:01:37;;;;;;;23.38;16.35;;;;;;;16.30;100.00;101770.19;4947358;28;20393;-86
2021/07/22 01:04:03;;;;;;;23.48;16.45;;;;;;;16.29;100.00;101765.81;4945733;28;20086;-90
2021/07/22 01:06:28;;;;;;;23.85;15.95;;;;;;;16.31;100.00;101763.75;4944099;28;20048;-86
2021/07/22 01:08:54;;;;;;;22.42;15.90;;;;;;;16.25;100.00;101764.44;4946113;28;20043;-88
2021/07/22 01:11:19;;;;;;;23.25;15.32;;;;;;;16.23;100.00;101769.22;4946487;28;20129;-86
2021/07/22 01:13:44;;;;;;;22.38;15.38;;;;;;;16.25;100.00;101769.88;4944207;28;20051;-89
2021/07/22 01:16:10;;;;;;;24.17;16.48;;;;;;;16.26;100.00;101766.16;4946002;28;20494;-86
2021/07/22 01:18:35;;;;;;;23.77;16.58;;;;;;;16.28;100.00;101765.97;4944308;28;20410;-84
2021/07/22 01:21:01;;;;;;;24.10;15.88;;;;;;;16.30;100.00;101766.63;4947068;28;20082;-84
2021/07/22 01:23:26;;;;;;;23.27;15.43;;;;;;;16.30;100.00;101763.94;4945874;28;20067;-84
2021/07/22 01:25:52;;;;;;;23.48;16.35;;;;;;;16.25;100.00;101769.88;4945147;28;20060;-84
2021/07/22 01:28:17;;;;;;;21.55;15.07;;;;;;;16.24;100.00;101763.63;4946307;28;20126;-84
2021/07/22 01:30:43;;;;;;;23.02;14.73;;;;;;;16.22;100.00;101767.53;4941988;28;20118;-88
2021/07/22 01:33:08;;;;;;;23.48;16.02;;;;;;;16.19;100.00;101754.34;4945497;28;20046;-84
2021/07/22 01:35:34;;;;;;;25.15;15.60;;;;;;;16.21;100.00;101760.44;4926936;28;20570;-87
2021/07/22 01:37:59;;;;;;;26.77;17.52;;;;;;;16.17;100.00;101757.25;4945079;28;20331;-87
2021/07/22 01:40:25;;;;;;;22.02;14.93;;;;;;;16.14;100.00;101756.72;4944329;28;20102;-85
2021/07/22 01:42:50;;;;;;;21.02;15.90;;;;;;;16.17;100.00;101757.25;4946025;28;20079;-90
2021/07/22 01:45:15;;;;;;;23.48;16.25;;;;;;;16.15;100.00;101747.59;4944201;28;20058;-85
2021/07/22 01:47:41;;;;;;;26.95;16.92;;;;;;;16.17;100.00;101751.81;4942280;28;20737;-86
2021/07/22 01:50:08;;;;;;;25.85;16.15;;;;;;;16.14;100.00;101752.19;4943700;28;20525;-84
2021/07/22 01:52:33;;;;;;;23.65;15.88;;;;;;;16.07;100.00;101753.06;4946035;28;20074;-87
2021/07/22 01:54:59;;;;;;;21.05;14.32;;;;;;;16.01;100.00;101751.91;4944739;28;20134;-85
2021/07/22 01:57:25;;;;;;;22.08;15.07;;;;;;;15.97;100.00;101754.13;4943613;28;20117;-85
2021/07/22 01:59:50;;;;;;;22.52;16.10;;;;;;;15.94;100.00;101751.78;4945522;28;20118;-87
2021/07/22 02:02:16;;;;;;;23.27;17.33;;;;;;;15.94;100.00;101746.34;4944748;28;20051;-85
2021/07/22 02:04:42;;;;;;;25.35;15.93;;;;;;;15.91;100.00;101757.53;4942039;28;20632;-85
2021/07/22 02:07:10;;;;;;;24.85;16.73;;;;;;;15.85;100.00;101749.25;4944007;29;20179;-85
2021/07/22 02:09:36;;;;;;;23.63;16.33;;;;;;;15.81;100.00;101751.47;4944029;28;20063;-85
2021/07/22 02:12:01;;;;;;;25.92;18.33;;;;;;;15.82;100.00;101746.91;4945233;28;20490;-85
2021/07/22 02:14:27;;;;;;;23.20;15.98;;;;;;;15.80;100.00;101749.81;4946155;28;20499;-85
2021/07/22 02:16:52;;;;;;;23.08;16.02;;;;;;;15.77;100.00;101744.75;4945389;28;20140;-84
2021/07/22 02:19:18;;;;;;;22.73;14.63;;;;;;;15.75;100.00;101754.88;4945464;28;20047;-87
2021/07/22 02:21:45;;;;;;;29.60;19.60;;;;;;;15.75;100.00;101747.59;4942599;28;20052;-90
2021/07/22 02:24:12;;;;;;;32.30;21.42;;;;;;;15.78;100.00;101746.41;4944913;28;20130;-84
2021/07/22 02:26:39;;;;;;;32.33;21.02;;;;;;;15.81;100.00;101751.47;4944740;28;20051;-85
2021/07/22 02:29:06;;;;;;;31.02;20.95;;;;;;;15.81;100.00;101756.06;4945435;28;20175;-89
2021/07/22 02:31:32;;;;;;;33.35;21.50;;;;;;;15.83;100.00;101759.44;4944796;28;20043;-88
2021/07/22 02:33:57;;;;;;;32.85;20.80;;;;;;;15.81;100.00;101756.06;4943526;28;20134;-85
2021/07/22 02:36:23;;;;;;;33.60;21.42;;;;;;;15.80;100.00;101757.91;4943143;28;20047;-87
2021/07/22 02:38:48;;;;;;;34.60;21.65;;;;;;;15.78;100.00;101752.66;4944979;28;22105;-85
2021/07/22 02:41:14;;;;;;;34.17;22.30;;;;;;;15.77;100.00;101761.81;4943440;29;20070;-87
2021/07/22 02:43:40;;;;;;;36.92;22.98;;;;;;;15.78;100.00;101751.84;4943541;28;20075;-86
2021/07/22 02:46:09;;;;;;;36.65;22.67;;;;;;;15.85;100.00;101754.66;4943747;28;20146;-86
2021/07/22 02:48:35;;;;;;;;;;;;;;;15.85;100.00;101752.81;4945642;28;20150;-85
2021/07/22 02:51:02;;;;;;;37.88;22.92;;;;;;;15.78;100.00;101754.53;4945477;28;20472;-86
2021/07/22 02:53:29;;;;;;;35.88;22.85;;;;;;;15.80;100.00;101747.09;4944267;28;20058;-83
2021/07/22 02:55:59;;;;;;;38.40;23.50;;;;;;;15.81;100.00;101751.47;4945394;29;20413;-90
2021/07/22 02:58:26;;;;;;;35.40;23.98;;;;;;;15.84;100.00;101750.28;4945125;28;20055;-85
2021/07/22 03:00:52;;;;;;;33.42;23.15;;;;;;;15.84;100.00;101761.13;4945136;28;20438;-85
2021/07/22 03:03:17;;;;;;;36.30;22.23;;;;;;;15.82;100.00;101761.28;4936511;28;20044;-87
2021/07/22 03:05:43;;;;;;;37.30;24.58;;;;;;;15.81;100.00;101761.47;4958599;28;20462;-85
2021/07/22 03:08:08;;;;;;;36.80;23.70;;;;;;;15.83;100.00;101759.44;4942230;28;20047;-86
2021/07/22 03:10:33;;;;;;;39.30;25.55;;;;;;;15.74;100.00;101755.91;4943882;28;20043;-84
2021/07/22 03:12:59;;;;;;;38.97;25.02;;;;;;;15.74;100.00;101761.34;4944614;29;20057;-87
2021/07/22 03:15:25;;;;;;;37.60;23.98;;;;;;;15.73;100.00;101765.03;4944594;28;20079;-86
2021/07/22 03:17:51;;;;;;;37.05;24.20;;;;;;;15.72;100.00;101757.94;4943498;28;20063;-89
2021/07/22 03:20:17;;;;;;;38.58;24.48;;;;;;;15.72;100.00;101760.66;4944727;28;20075;-90
2021/07/22 03:22:42;;;;;;;41.00;25.08;;;;;;;15.70;100.00;101759.97;4943728;28;20089;-86
2021/07/22 03:25:09;;;;;;;40.92;25.00;;;;;;;15.69;100.00;101763.72;4946699;28;20052;-84
2021/07/22 03:27:35;;;;;;;41.05;25.63;;;;;;;15.68;100.00;101756.59;4941426;28;20564;-84
2021/07/22 03:30:07;;;;;;;39.28;27.02;;;;;;;15.63;100.00;101764.38;4944669;28;20142;-88
2021/07/22 03:32:34;;;;;;;41.13;25.42;;;;;;;15.61;100.00;101763.69;4941361;28;20059;-85
2021/07/22 03:35:02;;;;;;;42.95;27.00;;;;;;;15.62;100.00;101758.09;4941330;28;20340;-84
2021/07/22 03:37:31;;;;;;;44.67;26.25;;;;;;;15.63;100.00;101762.50;4946524;28;20087;-83
2021/07/22 03:39:58;;;;;;;43.33;26.58;;;;;;;15.66;100.00;101756.75;4947032;28;20051;-88
2021/07/22 03:42:29;;;;;;;43.38;26.85;;;;;;;15.64;100.00;101766.06;4946875;28;20046;-85
2021/07/22 03:44:55;;;;;;;45.17;27.30;;;;;;;15.70;100.00;101758.09;4943965;28;20113;-86
2021/07/22 03:47:20;;;;;;;40.95;26.45;;;;;;;15.70;100.00;101752.69;4943538;28;20043;-84
2021/07/22 03:49:46;;;;;;;41.97;26.05;;;;;;;15.75;100.00;101754.88;4945871;28;20055;-85
2021/07/22 03:52:30;;;;;;;43.22;27.27;;;;;;;15.77;100.00;101755.56;4945781;28;20050;-85
2021/07/22 03:54:56;;;;;;;44.58;27.27;;;;;;;15.78;100.00;101751.84;4940224;28;20057;-86
2021/07/22 03:57:21;;;;;;;43.40;26.48;;;;;;;15.78;100.00;101758.09;4944135;28;20442;-85
2021/07/22 03:59:47;;;;;;;49.00;29.30;;;;;;;15.80;100.00;101755.22;4941455;28;20122;-89
2021/07/22 04:02:12;;;;;;;48.78;29.15;;;;;;;15.81;100.00;101756.06;4942836;28;20061;-84
2021/07/22 04:04:38;;;;;;;45.40;29.85;;;;;;;15.84;100.00;101751.13;4934102;28;20047;-85
2021/07/22 04:07:03;;;;;;;46.42;29.83;;;;;;;15.85;100.00;101751.97;4927533;29;20048;-85
2021/07/22 04:09:29;;;;;;;51.22;30.67;;;;;;;15.85;100.00;101750.09;4944336;28;20054;-86
2021/07/22 04:11:54;;;;;;;52.03;31.13;;;;;;;15.85;100.00;101754.66;4944847;28;20083;-87
2021/07/22 04:14:20;;;;;;;51.28;30.50;;;;;;;15.87;100.00;101750.78;4948979;28;20454;-85
2021/07/22 04:16:45;;;;;;;54.92;31.15;;;;;;;15.87;100.00;101758.06;4952309;28;20044;-85
2021/07/22 04:19:10;;;;;;;53.03;30.42;;;;;;;15.89;100.00;101753.31;4951226;28;20344;-85
2021/07/22 04:21:36;;;;;;;52.45;32.20;;;;;;;15.90;100.00;101755.84;4946000;28;20055;-87
2021/07/22 04:24:01;;;;;;;53.38;32.40;;;;;;;15.88;100.00;101757.91;4936260;28;20047;-88
2021/07/22 04:26:27;;;;;;;55.58;32.05;;;;;;;15.87;100.00;101756.19;4939307;28;20047;-86
2021/07/22 04:28:52;;;;;;;54.22;33.05;;;;;;;15.89;100.00;101748.75;4944930;28;20055;-86
2021/07/22 04:31:18;;;;;;;53.75;32.40;;;;;;;15.89;100.00;101756.88;4934704;29;20052;-86
2021/07/22 04:33:48;;;;;;;53.90;32.75;;;;;;;15.92;100.00;101751.09;4942712;28;20078;-92
2021/07/22 04:36:14;;;;;;;49.33;30.80;;;;;;;15.97;100.00;101756.00;4943114;28;20059;-85
2021/07/22 04:38:40;;;;;;;45.85;29.30;;;;;;;16.01;100.00;101754.59;4938825;28;20438;-87
2021/07/22 04:41:06;;;;;;;49.75;30.55;;;;;;;16.01;100.00;101754.59;4944365;28;20051;-87
2021/07/22 04:43:32;;;;;;;54.30;31.45;;;;;;;15.98;100.00;101750.38;4940508;28;20058;-86
2021/07/22 04:46:05;;;;;;;50.60;30.42;;;;;;;16.00;100.00;101756.47;4944403;28;20047;-85
2021/07/22 04:48:31;;;;;;;51.05;30.90;;;;;;;16.01;100.00;101751.91;4942864;28;20062;-86
2021/07/22 04:50:58;;;;;;;47.50;30.40;;;;;;;16.03;100.00;101758.00;4943157;28;20055;-86
2021/07/22 04:53:24;;;;;;;52.80;29.50;;;;;;;16.07;100.00;101753.06;4943529;28;20074;-86
2021/07/22 04:55:49;;;;;;;55.22;30.45;;;;;;;16.05;100.00;101755.09;4942772;28;20062;-85
2021/07/22 04:58:15;;;;;;;46.95;29.98;;;;;;;16.04;100.00;101756.13;4943296;28;20043;-91
2021/07/22 05:00:40;;;;;;;49.05;29.40;;;;;;;16.05;100.00;101764.06;4940463;28;20051;-89
2021/07/22 05:03:06;;;;;;;52.40;30.85;;;;;;;16.07;100.00;101761.19;4943327;28;20058;-87
2021/07/22 05:05:35;;;;;;;46.78;31.23;;;;;;;16.08;100.00;101763.69;4942966;28;20110;-84
2021/07/22 05:08:03;;;;;;;48.60;30.90;;;;;;;16.08;100.00;101760.16;4943126;28;20056;-85
2021/07/22 05:10:29;;;;;;;48.45;30.92;;;;;;;16.10;100.00;101758.13;4941474;28;20039;-85
2021/07/22 05:13:00;;;;;;;48.92;29.40;;;;;;;16.09;100.00;101759.16;4939034;28;20047;-87
2021/07/22 05:15:26;;;;;;;48.08;29.88;;;;;;;16.13;100.00;101755.88;4941349;28;20383;-85
2021/07/22 05:17:51;;;;;;;48.67;29.60;;;;;;;16.10;100.00;101758.94;4943533;28;20047;-85
2021/07/22 05:20:17;;;;;;;48.72;29.27;;;;;;;16.17;100.00;101762.66;4946032;28;20186;-87
2021/07/22 05:22:42;;;;;;;49.30;29.17;;;;;;;16.18;100.00;101758.06;4943012;28;20043;-87
2021/07/22 05:25:08;;;;;;;48.92;29.85;;;;;;;16.21;100.00;101760.44;4942296;28;20039;-87
2021/07/22 05:27:33;;;;;;;46.47;28.92;;;;;;;16.20;100.00;101761.47;4941163;28;20059;-86
2021/07/22 05:29:59;;;;;;;47.50;28.85;;;;;;;16.23;100.00;101761.94;4944356;28;20047;-84
2021/07/22 05:32:25;;;;;;;47.13;28.55;;;;;;;16.28;100.00;101769.50;4947053;28;20051;-84
2021/07/22 05:34:51;;;;;;;42.20;27.40;;;;;;;16.31;100.00;101763.75;4945963;28;20051;-87
2021/07/22 05:37:16;;;;;;;46.05;26.55;;;;;;;16.32;100.00;101765.44;4945908;28;20062;-85
2021/07/22 05:39:42;;;;;;;48.53;27.15;;;;;;;16.34;100.00;101765.25;4945972;28;20036;-85
2021/07/22 05:42:08;;;;;;;49.97;27.30;;;;;;;16.38;100.00;101764.72;4947534;28;20545;-86
2021/07/22 05:44:33;;;;;;;42.83;27.38;;;;;;;16.39;100.00;101765.56;4945699;28;20443;-85
2021/07/22 05:46:59;;;;;;;45.67;27.42;;;;;;;16.44;100.00;101757.75;4947921;28;20122;-90
2021/07/22 05:49:24;;;;;;;40.58;26.52;;;;;;;16.47;100.00;101763.66;4941662;28;21837;-85
2021/07/22 05:51:50;;;;;;;41.85;27.40;;;;;;;16.52;100.00;101762.28;4946432;28;20121;-89
2021/07/22 05:54:15;;;;;;;44.10;26.90;;;;;;;16.58;100.00;101767.81;4944702;28;20419;-85
2021/07/22 05:56:41;;;;;;;44.00;27.00;;;;;;;16.66;100.00;101766.94;4943123;28;20134;-85
2021/07/22 05:59:07;;;;;;;40.72;26.65;;;;;;;16.72;100.00;101766.19;4945067;28;20055;-90
2021/07/22 06:01:32;;;;;;;38.78;25.05;;;;;;;16.75;100.00;101759.56;4944515;28;20052;-86
2021/07/22 06:03:57;;;;;;;39.60;24.95;;;;;;;16.85;100.00;101762.91;4939804;28;20138;-88
2021/07/22 06:06:23;;;;;;;39.95;25.02;;;;;;;16.92;100.00;101762.00;4945514;28;20174;-86
2021/07/22 06:08:49;;;;;;;38.00;24.77;;;;;;;16.95;99.71;101766.22;4946191;28;20402;-87
2021/07/22 06:11:16;;;;;;;36.85;24.70;;;;;;;17.06;99.61;101773.91;4947155;28;20051;-86
2021/07/22 06:13:42;;;;;;;38.10;24.23;;;;;;;17.08;98.91;101771.84;4943485;28;20047;-86
2021/07/22 06:16:12;;;;;;;38.90;25.50;;;;;;;17.15;99.51;101774.69;4942461;28;20077;-86
2021/07/22 06:18:41;;;;;;;37.22;24.70;;;;;;;17.24;99.08;101775.44;4945863;28;20062;-85
2021/07/22 06:21:10;;;;;;;;;;;;;;;17.22;98.38;101767.47;4945517;28;20066;-86
2021/07/22 06:23:35;;;;;;;;;;;;;;;17.23;98.70;101779.16;4944160;28;19922;-88
2021/07/22 06:26:03;;;;;;;37.60;26.20;;;;;;;17.21;99.21;101775.81;4944943;28;19989;-85
2021/07/22 06:28:29;;;;;;;35.10;24.08;;;;;;;17.30;98.61;101772.81;4944986;28;20838;-85
2021/07/22 06:30:55;;;;;;;34.80;24.25;;;;;;;17.40;97.79;101772.53;4945022;28;20059;-84
2021/07/22 06:33:21;;;;;;;35.22;24.80;;;;;;;17.49;97.79;101774.16;4944577;28;20050;-87
2021/07/22 06:35:47;;;;;;;35.95;24.92;;;;;;;17.57;97.18;101765.06;4943702;28;20051;-87
2021/07/22 06:38:13;;;;;;;35.30;24.00;;;;;;;17.59;97.38;101772.00;4944584;28;20147;-86
2021/07/22 06:40:40;;;;;;;34.28;23.38;;;;;;;17.66;96.17;101772.09;4945433;28;20142;-87
2021/07/22 06:43:11;;;;;;;35.92;24.83;;;;;;;17.78;97.16;101758.91;4944077;28;20086;-86
2021/07/22 06:45:38;;;;;;;37.58;24.25;;;;;;;17.84;96.16;101776.31;4941464;28;20569;-88
2021/07/22 06:48:04;;;;;;;35.08;22.80;;;;;;;17.86;96.66;101774.28;4941141;28;20051;-86
2021/07/22 06:50:29;;;;;;;34.75;23.85;;;;;;;17.91;96.30;101778.09;4944253;28;20131;-85
2021/07/22 06:52:55;;;;;;;37.97;24.90;;;;;;;18.03;95.51;101778.47;4943905;28;20137;-86
2021/07/22 06:55:20;;;;;;;36.55;23.10;;;;;;;18.14;95.34;101769.84;4944174;28;20071;-85
2021/07/22 06:57:48;;;;;;;36.22;24.38;;;;;;;18.22;94.75;101780.59;4944675;28;20044;-86
2021/07/22 07:00:13;;;;;;;36.05;24.02;;;;;;;18.21;93.83;101773.50;4942573;28;20071;-88
2021/07/22 07:02:39;;;;;;;36.30;24.05;;;;;;;18.30;94.00;101770.63;4943402;28;20048;-87
2021/07/22 07:05:06;;;;;;;33.00;22.38;;;;;;;18.37;94.02;101771.56;4944293;28;20070;-87
2021/07/22 07:07:31;;;;;;;36.10;23.52;;;;;;;18.43;93.07;101776.22;4943251;28;20039;-84
2021/07/22 07:09:57;;;;;;;34.30;23.40;;;;;;;18.43;92.63;101776.22;4945557;28;20429;-87
2021/07/22 07:12:22;;;;;;;32.13;21.60;;;;;;;18.47;92.27;101785.66;4942224;28;20426;-90
2021/07/22 07:14:48;;;;;;;30.52;21.30;;;;;;;18.51;92.18;101783.44;4942489;28;20122;-86
2021/07/22 07:17:13;;;;;;;32.83;21.92;;;;;;;18.62;92.56;101786.47;4943564;28;20047;-86
2021/07/22 07:19:38;;;;;;;30.67;21.25;;;;;;;18.73;91.55;101776.97;4942379;28;20043;-87
2021/07/22 07:22:04;;;;;;;30.70;21.08;;;;;;;18.76;90.19;101786.63;4944522;28;20051;-86
2021/07/22 07:24:30;;;;;;;30.40;20.55;;;;;;;18.77;89.46;101782.88;4940245;28;20204;-90
2021/07/22 07:26:55;;;;;;;28.85;20.10;;;;;;;18.80;89.49;101783.34;4944323;28;20387;-86
2021/07/22 07:29:20;;;;;;;29.48;20.75;;;;;;;18.84;89.66;101781.91;4943981;28;20786;-86
2021/07/22 07:31:46;;;;;;;30.20;21.02;;;;;;;18.88;89.34;101777.75;4954897;28;20067;-87
2021/07/22 07:34:11;;;;;;;30.33;20.63;;;;;;;18.93;89.10;101783.47;4943584;28;20142;-85
2021/07/22 07:36:41;;;;;;;30.40;19.77;;;;;;;18.99;88.48;101776.41;4943896;28;20503;-86
2021/07/22 07:39:06;;;;;;;30.27;19.83;;;;;;;19.04;89.10;101782.06;4941990;28;20341;-88
2021/07/22 07:41:32;;;;;;;27.67;17.92;;;;;;;19.13;88.87;101783.63;4944530;28;20491;-87
2021/07/22 07:43:57;;;;;;;27.52;19.85;;;;;;;19.16;88.68;101783.25;4934199;28;20143;-87
2021/07/22 07:46:22;;;;;;;29.10;19.90;;;;;;;19.21;88.20;101784.50;4941928;28;20057;-91
2021/07/22 07:48:48;;;;;;;29.85;19.73;;;;;;;19.29;87.95;101787.09;4943617;28;20047;-86
2021/07/22 07:51:15;;;;;;;26.98;18.50;;;;;;;19.39;87.24;101783.00;4940457;28;20047;-90
2021/07/22 07:53:41;;;;;;;29.88;18.55;;;;;;;19.47;87.36;101778.44;4936783;28;20047;-85
2021/07/22 07:56:07;;;;;;;26.85;18.42;;;;;;;19.54;85.85;101779.31;4943346;28;20418;-86
2021/07/22 07:58:32;;;;;;;28.85;20.25;;;;;;;19.64;85.89;101781.69;4943779;28;20501;-86
2021/07/22 08:00:57;;;;;;;28.15;19.80;;;;;;;19.68;86.25;101780.25;4943184;28;20063;-85
2021/07/22 08:03:24;;;;;;;28.00;19.02;;;;;;;19.79;85.50;101782.41;4943271;28;20075;-86
2021/07/22 08:05:51;;;;;;;29.52;18.80;;;;;;;19.83;84.72;101789.16;4942145;28;20134;-87
2021/07/22 08:08:16;;;;;;;27.83;18.70;;;;;;;19.91;85.94;101791.72;4943412;28;20054;-86
2021/07/22 08:10:42;;;;;;;26.83;19.15;;;;;;;20.02;84.15;101788.44;4943321;28;20051;-86
2021/07/22 08:13:08;;;;;;;30.60;19.92;;;;;;;20.04;83.59;101790.94;4942519;28;20087;-86
2021/07/22 08:15:34;;;;;;;27.02;18.10;;;;;;;20.12;84.00;101787.19;4942553;28;20158;-91
2021/07/22 08:17:59;;;;;;;25.10;18.13;;;;;;;20.02;82.85;101788.44;4942295;28;20698;-86
2021/07/22 08:20:25;;;;;;;25.25;18.15;;;;;;;19.96;83.49;101788.38;4944472;28;20098;-86
2021/07/22 08:22:50;;;;;;;25.50;18.58;;;;;;;19.88;84.45;101786.69;4942714;28;20099;-86
2021/07/22 08:25:16;;;;;;;25.42;17.45;;;;;;;19.91;83.97;101780.81;4944241;28;20062;-86
2021/07/22 08:27:41;;;;;;;27.08;17.40;;;;;;;19.97;83.68;101784.63;4941982;28;20046;-86
2021/07/22 08:30:08;;;;;;;28.27;17.98;;;;;;;20.03;83.53;101784.66;4936571;28;20062;-85
2021/07/22 08:32:33;;;;;;;26.67;17.55;;;;;;;20.12;82.65;101784.47;4926060;29;20090;-87
2021/07/22 08:34:59;;;;;;;22.60;16.65;;;;;;;20.09;81.15;101782.16;4943194;28;20130;-87
2021/07/22 08:37:24;;;;;;;26.45;16.75;;;;;;;20.01;82.16;101785.88;4943516;28;20055;-85
2021/07/22 08:39:54;;;;;;;25.63;15.82;;;;;;;20.17;82.35;101784.69;4943412;28;20071;-90
2021/07/22 08:42:24;;;;;;;25.52;16.95;;;;;;;20.37;80.88;101782.88;4943895;28;20055;-86
2021/07/22 08:44:50;;;;;;;20.70;14.65;;;;;;;20.47;79.48;101788.78;4941936;28;20479;-86
2021/07/22 08:47:15;;;;;;;23.20;16.15;;;;;;;20.39;79.34;101785.41;4944229;28;20043;-86
2021/07/22 08:49:41;;;;;;;22.67;16.60;;;;;;;20.32;79.23;101787.28;4942008;28;20549;-87
2021/07/22 08:52:09;;;;;;;22.65;14.90;;;;;;;20.29;79.41;101781.19;4940281;29;20067;-88
2021/07/22 08:54:38;;;;;;;21.80;14.95;;;;;;;20.34;79.17;101779.72;4941578;28;20051;-87
2021/07/22 08:57:07;;;;;;;23.30;15.43;;;;;;;20.36;79.35;101783.91;4939012;28;20129;-87
2021/07/22 08:59:33;;;;;;;22.85;15.57;;;;;;;20.50;79.75;101776.63;4940845;28;20050;-87
2021/07/22 09:02:00;;;;;;;19.55;15.02;;;;;;;20.64;79.07;101783.81;4938084;28;20161;-89
2021/07/22 09:04:29;;;;;;;23.95;15.30;;;;;;;20.76;78.79;101792.22;4943147;28;20149;-86
2021/07/22 09:06:58;;;;;;;18.85;14.25;;;;;;;20.83;77.95;101784.03;4943925;28;20062;-87
2021/07/22 09:09:24;;;;;;;20.27;14.95;;;;;;;20.78;77.58;101779.22;4948045;28;20051;-86
2021/07/22 09:11:56;;;;;;;19.08;14.05;;;;;;;20.81;77.31;101781.53;4944320;28;20098;-88
2021/07/22 09:14:22;;;;;;;18.65;13.23;;;;;;;20.89;77.64;101778.59;4947798;28;20057;-86
2021/07/22 09:16:48;;;;;;;17.88;12.38;;;;;;;20.85;76.95;101781.94;4943673;28;20043;-86
2021/07/22 09:19:35;;;;;;;17.95;12.35;;;;;;;20.87;76.76;101791.59;4947274;28;20094;-87
2021/07/22 09:22:01;;;;;;;20.33;13.55;;;;;;;20.94;77.66;101789.75;4943236;28;20043;-87
2021/07/22 09:24:26;;;;;;;21.85;13.73;;;;;;;20.98;77.99;101783.88;4946898;28;20741;-87
2021/07/22 09:26:52;;;;;;;20.70;12.88;;;;;;;21.12;77.58;101783.66;4943855;28;20129;-90
2021/07/22 09:29:19;;;;;;;19.85;13.13;;;;;;;21.31;76.86;101792.88;4944291;28;20061;-87
2021/07/22 09:31:46;;;;;;;16.27;12.93;;;;;;;21.41;74.94;101781.56;4943880;28;20054;-86
2021/07/22 09:34:24;;;;;;;17.20;11.98;;;;;;;21.26;73.43;101784.50;4942354;28;20050;-87
2021/07/22 09:36:50;;;;;;;17.60;13.18;;;;;;;21.32;73.71;101782.78;4947760;28;20067;-88
2021/07/22 09:39:17;;;;;;;18.00;12.32;;;;;;;21.16;73.84;101789.53;4946997;28;20431;-88
2021/07/22 09:41:43;;;;;;;18.50;12.45;;;;;;;21.17;74.71;101783.00;4944131;28;20059;-86
2021/07/22 09:44:35;;;;;;;16.88;11.82;;;;;;;21.27;75.71;101791.63;4945788;28;20109;-91
2021/07/22 09:47:01;;;;;;;18.50;13.27;;;;;;;21.22;74.80;101785.94;4945995;28;20108;-87
2021/07/22 09:49:32;;;;;;;18.85;13.57;;;;;;;21.19;74.95;101789.09;4946031;28;20047;-86
2021/07/22 09:52:01;;;;;;;19.42;12.60;;;;;;;21.26;74.36;101780.91;4945648;28;20442;-87
2021/07/22 09:54:35;;;;;;;16.88;12.23;;;;;;;21.39;74.11;101784.50;4946366;28;20557;-86
2021/07/22 09:57:02;;;;;;;18.17;12.90;;;;;;;21.40;72.96;101783.44;4942654;28;20126;-88
2021/07/22 09:59:29;;;;;;;15.15;11.18;;;;;;;21.44;73.04;101783.88;4944536;28;20059;-86
2021/07/22 10:01:59;;;;;;;18.23;12.60;;;;;;;21.48;73.92;101784.28;4945414;28;20058;-89
2021/07/22 10:04:27;;;;;;;15.45;11.77;;;;;;;21.57;73.25;101783.00;4946397;28;20143;-86
2021/07/22 10:06:54;;;;;;;17.80;11.23;;;;;;;21.85;72.18;101785.44;4944625;28;20053;-87
2021/07/22 10:09:22;;;;;;;13.55;10.55;;;;;;;22.15;71.52;101783.00;4943999;29;20046;-90
2021/07/22 10:11:49;;;;;;;14.60;11.57;;;;;;;22.32;70.19;101774.34;4946238;28;20060;-86
2021/07/22 10:14:20;;;;;;;13.82;11.00;;;;;;;22.36;71.01;101772.88;4944224;28;20047;-87
2021/07/22 10:16:48;;;;;;;14.50;11.38;;;;;;;22.34;69.68;101774.97;4944220;28;20217;-90
2021/07/22 10:19:15;;;;;;;15.07;11.25;;;;;;;22.18;70.11;101777.16;4943048;28;20581;-86
2021/07/22 10:21:41;;;;;;;16.08;10.77;;;;;;;22.14;71.57;101775.88;4945222;28;20054;-91
2021/07/22 10:24:07;;;;;;;15.25;11.15;;;;;;;22.23;70.89;101777.31;4946706;28;20047;-88
2021/07/22 10:26:39;;;;;;;17.33;12.30;;;;;;;22.24;70.37;101769.97;4946159;28;20043;-86
2021/07/22 10:29:05;;;;;;;15.15;11.23;;;;;;;22.26;70.35;101779.63;4942255;28;20051;-91
2021/07/22 10:31:33;;;;;;;15.40;12.02;;;;;;;22.26;70.83;101767.84;4945299;28;20059;-87
2021/07/22 10:33:59;;;;;;;16.83;11.83;;;;;;;22.19;68.39;101767.91;4946091;28;20063;-89
2021/07/22 10:36:27;;;;;;;15.85;11.35;;;;;;;22.12;69.95;101772.50;4945051;28;20330;-87
2021/07/22 10:38:55;;;;;;;18.25;11.02;;;;;;;22.14;69.00;101764.94;4943604;28;20524;-88
2021/07/22 10:41:37;;;;;;;16.40;11.57;;;;;;;22.12;70.79;101767.03;4944999;28;20049;-87
2021/07/22 10:44:14;;;;;;;16.63;11.73;;;;;;;22.34;70.13;101764.03;4932332;28;20039;-86
2021/07/22 10:46:53;;;;;;;14.57;10.95;;;;;;;22.53;69.93;101768.56;4944167;28;20406;-91
2021/07/22 10:49:19;;;;;;;16.67;10.68;;;;;;;22.58;67.18;101755.03;4944859;28;20109;-89
2021/07/22 10:51:46;;;;;;;14.43;10.90;;;;;;;22.58;67.98;101759.66;4943440;28;20060;-87
2021/07/22 10:54:40;;;;;;;14.98;11.20;;;;;;;22.69;66.03;101762.53;4929250;28;20082;-86
2021/07/22 10:57:05;;;;;;;13.90;10.73;;;;;;;22.47;67.43;101756.59;4940637;28;20050;-88
2021/07/22 11:00:01;;;;;;;13.95;9.80;;;;;;;22.42;68.87;101761.88;4942042;28;20047;-87
2021/07/22 11:02:44;;;;;;;13.77;10.20;;;;;;;22.44;68.58;101759.78;4940122;28;20858;-87
2021/07/22 11:05:34;;;;;;;13.35;9.95;;;;;;;22.38;67.10;101751.59;4942649;29;20430;-87